sensor_id;sensor_type;location;lat;lon;timestamp;temperature;humidity
58983;DHT22;44771;49.982;8.560;2023-12-22T00:01:51;4.40;99.90
58983;DHT22;44771;49.982;8.560;2023-12-22T00:06:53;4.40;99.90
58983;DHT22;44771;49.982;8.560;2023-12-22T00:11:59;4.40;99.90
58983;DHT22;44771;49.982;8.560;2023-12-22T00:17:01;4.40;99.90
58983;DHT22;44771;49.982;8.560;2023-12-22T00:22:03;4.30;99.90
58983;DHT22;44771;49.982;8.560;2023-12-22T00:27:06;4.30;99.90
58983;DHT22;44771;49.982;8.560;2023-12-22T00:32:08;4.10;99.90
58983;DHT22;44771;49.982;8.560;2023-12-22T00:37:10;4.20;99.90
58983;DHT22;44771;49.982;8.560;2023-12-22T00:42:13;4.20;99.90
58983;DHT22;44771;49.982;8.560;2023-12-22T00:47:15;4.20;99.90
58983;DHT22;44771;49.982;8.560;2023-12-22T00:52:20;4.30;99.90
58983;DHT22;44771;49.982;8.560;2023-12-22T00:57:23;4.30;99.90
58983;DHT22;44771;49.982;8.560;2023-12-22T01:02:25;4.40;99.90
58983;DHT22;44771;49.982;8.560;2023-12-22T01:07:27;4.50;99.90
58983;DHT22;44771;49.982;8.560;2023-12-22T01:12:30;4.60;99.90
58983;DHT22;44771;49.982;8.560;2023-12-22T01:17:32;4.60;99.90
58983;DHT22;44771;49.982;8.560;2023-12-22T01:22:34;4.60;99.90
58983;DHT22;44771;49.982;8.560;2023-12-22T01:27:38;4.80;99.90
58983;DHT22;44771;49.982;8.560;2023-12-22T01:32:39;4.90;99.90
58983;DHT22;44771;49.982;8.560;2023-12-22T01:37:41;5.10;99.90
58983;DHT22;44771;49.982;8.560;2023-12-22T01:42:45;5.10;99.90
58983;DHT22;44771;49.982;8.560;2023-12-22T01:47:47;5.10;99.90
58983;DHT22;44771;49.982;8.560;2023-12-22T01:52:49;5.10;99.90
58983;DHT22;44771;49.982;8.560;2023-12-22T01:57:53;5.20;99.90
58983;DHT22;44771;49.982;8.560;2023-12-22T02:02:55;5.10;99.90
58983;DHT22;44771;49.982;8.560;2023-12-22T02:07:57;5.00;99.90
58983;DHT22;44771;49.982;8.560;2023-12-22T02:13:00;4.80;99.90
58983;DHT22;44771;49.982;8.560;2023-12-22T02:18:06;4.50;99.90
58983;DHT22;44771;49.982;8.560;2023-12-22T02:23:10;4.40;99.90
58983;DHT22;44771;49.982;8.560;2023-12-22T02:28:17;4.50;99.90
58983;DHT22;44771;49.982;8.560;2023-12-22T02:33:22;4.60;99.90
58983;DHT22;44771;49.982;8.560;2023-12-22T02:38:27;4.50;99.90
58983;DHT22;44771;49.982;8.560;2023-12-22T02:43:29;4.40;99.90
58983;DHT22;44771;49.982;8.560;2023-12-22T02:48:34;4.30;99.90
58983;DHT22;44771;49.982;8.560;2023-12-22T02:53:37;4.10;99.90
58983;DHT22;44771;49.982;8.560;2023-12-22T02:58:39;4.00;99.90
58983;DHT22;44771;49.982;8.560;2023-12-22T03:03:41;3.90;99.90
58983;DHT22;44771;49.982;8.560;2023-12-22T03:08:44;4.10;99.90
58983;DHT22;44771;49.982;8.560;2023-12-22T03:13:46;4.30;99.90
58983;DHT22;44771;49.982;8.560;2023-12-22T03:18:48;4.40;99.90
58983;DHT22;44771;49.982;8.560;2023-12-22T03:23:51;4.40;99.90
58983;DHT22;44771;49.982;8.560;2023-12-22T03:28:53;4.40;99.90
58983;DHT22;44771;49.982;8.560;2023-12-22T03:33:55;4.50;99.90
58983;DHT22;44771;49.982;8.560;2023-12-22T03:38:59;4.60;99.90
58983;DHT22;44771;49.982;8.560;2023-12-22T03:44:00;4.70;99.90
58983;DHT22;44771;49.982;8.560;2023-12-22T03:49:02;4.80;99.90
58983;DHT22;44771;49.982;8.560;2023-12-22T03:54:06;4.70;99.90
58983;DHT22;44771;49.982;8.560;2023-12-22T03:59:07;4.60;99.90
58983;DHT22;44771;49.982;8.560;2023-12-22T04:04:09;4.60;99.90
58983;DHT22;44771;49.982;8.560;2023-12-22T04:09:12;4.50;99.90
58983;DHT22;44771;49.982;8.560;2023-12-22T04:14:14;4.50;99.90
58983;DHT22;44771;49.982;8.560;2023-12-22T04:19:16;4.50;99.90
58983;DHT22;44771;49.982;8.560;2023-12-22T04:24:21;4.50;99.90
58983;DHT22;44771;49.982;8.560;2023-12-22T04:29:23;4.50;99.90
58983;DHT22;44771;49.982;8.560;2023-12-22T04:34:24;4.50;99.90
58983;DHT22;44771;49.982;8.560;2023-12-22T04:39:31;4.80;99.90
58983;DHT22;44771;49.982;8.560;2023-12-22T04:44:32;5.00;99.90
58983;DHT22;44771;49.982;8.560;2023-12-22T04:49:34;5.00;99.90
58983;DHT22;44771;49.982;8.560;2023-12-22T04:54:37;5.20;99.90
58983;DHT22;44771;49.982;8.560;2023-12-22T04:59:39;5.30;99.90
58983;DHT22;44771;49.982;8.560;2023-12-22T05:04:41;5.40;99.90
58983;DHT22;44771;49.982;8.560;2023-12-22T05:09:44;5.30;99.90
58983;DHT22;44771;49.982;8.560;2023-12-22T05:14:46;5.30;99.90
58983;DHT22;44771;49.982;8.560;2023-12-22T05:19:48;5.40;99.90
58983;DHT22;44771;49.982;8.560;2023-12-22T05:24:51;5.40;99.90
58983;DHT22;44771;49.982;8.560;2023-12-22T05:29:53;5.40;99.90
58983;DHT22;44771;49.982;8.560;2023-12-22T05:34:55;5.40;99.90
58983;DHT22;44771;49.982;8.560;2023-12-22T05:39:58;5.30;99.90
58983;DHT22;44771;49.982;8.560;2023-12-22T05:45:00;5.50;99.90
58983;DHT22;44771;49.982;8.560;2023-12-22T05:50:02;5.30;99.90
58983;DHT22;44771;49.982;8.560;2023-12-22T05:55:06;5.10;99.90
58983;DHT22;44771;49.982;8.560;2023-12-22T06:00:09;5.30;99.90
58983;DHT22;44771;49.982;8.560;2023-12-22T06:05:11;5.30;99.90
58983;DHT22;44771;49.982;8.560;2023-12-22T06:10:15;5.10;99.90
58983;DHT22;44771;49.982;8.560;2023-12-22T06:15:16;5.20;99.90
58983;DHT22;44771;49.982;8.560;2023-12-22T06:20:18;5.10;99.90
58983;DHT22;44771;49.982;8.560;2023-12-22T06:25:21;5.30;99.90
58983;DHT22;44771;49.982;8.560;2023-12-22T06:30:23;5.70;99.90
58983;DHT22;44771;49.982;8.560;2023-12-22T06:35:25;5.60;99.90
58983;DHT22;44771;49.982;8.560;2023-12-22T06:40:28;5.60;99.90
58983;DHT22;44771;49.982;8.560;2023-12-22T06:45:30;5.50;99.90
58983;DHT22;44771;49.982;8.560;2023-12-22T06:50:32;5.40;99.90
58983;DHT22;44771;49.982;8.560;2023-12-22T06:55:35;5.40;99.90
58983;DHT22;44771;49.982;8.560;2023-12-22T07:00:37;5.40;99.90
58983;DHT22;44771;49.982;8.560;2023-12-22T07:05:42;5.40;99.90
58983;DHT22;44771;49.982;8.560;2023-12-22T07:10:45;5.20;99.90
58983;DHT22;44771;49.982;8.560;2023-12-22T07:15:47;5.30;99.90
58983;DHT22;44771;49.982;8.560;2023-12-22T07:20:49;5.20;99.90
58983;DHT22;44771;49.982;8.560;2023-12-22T07:25:52;5.20;99.90
58983;DHT22;44771;49.982;8.560;2023-12-22T07:30:54;5.20;99.90
58983;DHT22;44771;49.982;8.560;2023-12-22T07:35:56;5.20;99.90
58983;DHT22;44771;49.982;8.560;2023-12-22T07:40:59;5.20;99.90
58983;DHT22;44771;49.982;8.560;2023-12-22T07:46:01;5.30;99.90
58983;DHT22;44771;49.982;8.560;2023-12-22T07:51:03;5.30;99.90
58983;DHT22;44771;49.982;8.560;2023-12-22T07:56:07;5.30;99.90
58983;DHT22;44771;49.982;8.560;2023-12-22T08:01:10;5.30;99.90
58983;DHT22;44771;49.982;8.560;2023-12-22T08:06:12;5.30;99.90
58983;DHT22;44771;49.982;8.560;2023-12-22T08:11:15;5.50;99.90
58983;DHT22;44771;49.982;8.560;2023-12-22T08:16:17;5.60;99.90
58983;DHT22;44771;49.982;8.560;2023-12-22T08:21:18;5.70;99.90
58983;DHT22;44771;49.982;8.560;2023-12-22T08:26:36;6.00;99.90
58983;DHT22;44771;49.982;8.560;2023-12-22T08:31:38;6.40;99.90
58983;DHT22;44771;49.982;8.560;2023-12-22T08:36:40;6.60;99.90
58983;DHT22;44771;49.982;8.560;2023-12-22T08:41:44;6.70;99.90
58983;DHT22;44771;49.982;8.560;2023-12-22T08:46:46;6.60;99.90
58983;DHT22;44771;49.982;8.560;2023-12-22T08:51:48;6.40;99.90
58983;DHT22;44771;49.982;8.560;2023-12-22T08:56:51;6.10;99.90
58983;DHT22;44771;49.982;8.560;2023-12-22T09:01:53;5.80;99.90
58983;DHT22;44771;49.982;8.560;2023-12-22T09:06:55;5.70;99.90
58983;DHT22;44771;49.982;8.560;2023-12-22T09:11:58;5.60;99.90
58983;DHT22;44771;49.982;8.560;2023-12-22T09:17:00;5.50;99.90
58983;DHT22;44771;49.982;8.560;2023-12-22T09:22:02;5.50;99.90
58983;DHT22;44771;49.982;8.560;2023-12-22T09:27:06;5.50;99.90
58983;DHT22;44771;49.982;8.560;2023-12-22T09:32:08;5.40;99.90
58983;DHT22;44771;49.982;8.560;2023-12-22T09:37:10;5.40;99.90
58983;DHT22;44771;49.982;8.560;2023-12-22T09:42:13;5.40;99.90
58983;DHT22;44771;49.982;8.560;2023-12-22T09:47:16;5.40;99.90
58983;DHT22;44771;49.982;8.560;2023-12-22T09:52:19;5.50;99.90
58983;DHT22;44771;49.982;8.560;2023-12-22T09:57:27;5.50;99.90
58983;DHT22;44771;49.982;8.560;2023-12-22T10:02:30;5.70;99.90
58983;DHT22;44771;49.982;8.560;2023-12-22T10:07:33;5.60;99.90
58983;DHT22;44771;49.982;8.560;2023-12-22T10:12:46;5.70;99.90
58983;DHT22;44771;49.982;8.560;2023-12-22T10:17:48;5.80;99.90
58983;DHT22;44771;49.982;8.560;2023-12-22T10:22:50;5.90;99.90
58983;DHT22;44771;49.982;8.560;2023-12-22T10:27:53;6.00;99.90
58983;DHT22;44771;49.982;8.560;2023-12-22T10:32:55;6.00;99.90
58983;DHT22;44771;49.982;8.560;2023-12-22T10:37:58;6.10;99.90
58983;DHT22;44771;49.982;8.560;2023-12-22T10:43:05;6.40;99.90
58983;DHT22;44771;49.982;8.560;2023-12-22T10:48:07;6.50;99.90
58983;DHT22;44771;49.982;8.560;2023-12-22T10:53:11;6.70;99.90
58983;DHT22;44771;49.982;8.560;2023-12-22T10:58:18;6.80;99.90
58983;DHT22;44771;49.982;8.560;2023-12-22T11:03:26;6.90;99.90
58983;DHT22;44771;49.982;8.560;2023-12-22T11:08:30;7.00;99.90
58983;DHT22;44771;49.982;8.560;2023-12-22T11:13:35;7.10;99.90
58983;DHT22;44771;49.982;8.560;2023-12-22T11:18:37;7.30;99.90
58983;DHT22;44771;49.982;8.560;2023-12-22T11:23:42;7.40;99.90
58983;DHT22;44771;49.982;8.560;2023-12-22T11:28:48;7.60;99.90
58983;DHT22;44771;49.982;8.560;2023-12-22T11:33:50;7.70;99.90
58983;DHT22;44771;49.982;8.560;2023-12-22T11:39:05;7.70;99.90
58983;DHT22;44771;49.982;8.560;2023-12-22T11:44:09;7.70;99.90
58983;DHT22;44771;49.982;8.560;2023-12-22T11:49:11;7.70;99.90
58983;DHT22;44771;49.982;8.560;2023-12-22T11:54:48;7.70;99.90
58983;DHT22;44771;49.982;8.560;2023-12-22T11:59:52;7.60;99.90
58983;DHT22;44771;49.982;8.560;2023-12-22T12:04:54;7.60;99.90
58983;DHT22;44771;49.982;8.560;2023-12-22T12:09:58;7.60;99.90
58983;DHT22;44771;49.982;8.560;2023-12-22T12:15:07;7.60;99.90
58983;DHT22;44771;49.982;8.560;2023-12-22T12:20:10;7.60;99.90
58983;DHT22;44771;49.982;8.560;2023-12-22T12:25:12;7.70;99.90
58983;DHT22;44771;49.982;8.560;2023-12-22T12:30:28;7.80;99.90
58983;DHT22;44771;49.982;8.560;2023-12-22T12:35:30;7.80;99.90
58983;DHT22;44771;49.982;8.560;2023-12-22T12:40:33;7.90;99.90
58983;DHT22;44771;49.982;8.560;2023-12-22T12:45:38;7.90;99.90
58983;DHT22;44771;49.982;8.560;2023-12-22T12:50:40;7.90;99.90
58983;DHT22;44771;49.982;8.560;2023-12-22T12:55:42;8.10;99.90
58983;DHT22;44771;49.982;8.560;2023-12-22T13:00:46;8.10;99.90
58983;DHT22;44771;49.982;8.560;2023-12-22T13:05:48;8.20;99.90
58983;DHT22;44771;49.982;8.560;2023-12-22T13:10:59;8.10;99.90
58983;DHT22;44771;49.982;8.560;2023-12-22T13:16:03;8.20;99.90
58983;DHT22;44771;49.982;8.560;2023-12-22T13:21:05;8.30;99.90
58983;DHT22;44771;49.982;8.560;2023-12-22T13:26:17;8.40;99.90
58983;DHT22;44771;49.982;8.560;2023-12-22T13:31:21;8.40;99.90
58983;DHT22;44771;49.982;8.560;2023-12-22T13:36:23;8.30;99.90
58983;DHT22;44771;49.982;8.560;2023-12-22T13:41:25;8.20;99.90
58983;DHT22;44771;49.982;8.560;2023-12-22T13:46:31;8.20;99.90
58983;DHT22;44771;49.982;8.560;2023-12-22T13:51:40;8.30;99.90
58983;DHT22;44771;49.982;8.560;2023-12-22T13:56:42;8.40;99.90
58983;DHT22;44771;49.982;8.560;2023-12-22T14:01:46;8.60;99.90
58983;DHT22;44771;49.982;8.560;2023-12-22T14:06:48;8.80;99.90
58983;DHT22;44771;49.982;8.560;2023-12-22T14:11:50;8.90;99.90
58983;DHT22;44771;49.982;8.560;2023-12-22T14:17:04;9.00;99.90
58983;DHT22;44771;49.982;8.560;2023-12-22T14:22:06;9.00;99.90
58983;DHT22;44771;49.982;8.560;2023-12-22T14:27:11;9.10;99.90
58983;DHT22;44771;49.982;8.560;2023-12-22T14:32:17;9.10;99.90
58983;DHT22;44771;49.982;8.560;2023-12-22T14:37:19;9.10;99.90
58983;DHT22;44771;49.982;8.560;2023-12-22T14:42:20;9.20;99.90
58983;DHT22;44771;49.982;8.560;2023-12-22T14:47:23;9.20;99.90
58983;DHT22;44771;49.982;8.560;2023-12-22T14:52:25;9.20;99.90
58983;DHT22;44771;49.982;8.560;2023-12-22T14:57:30;9.30;99.90
58983;DHT22;44771;49.982;8.560;2023-12-22T15:02:33;9.40;99.90
58983;DHT22;44771;49.982;8.560;2023-12-22T15:07:35;9.50;99.90
58983;DHT22;44771;49.982;8.560;2023-12-22T15:12:37;9.40;99.90
58983;DHT22;44771;49.982;8.560;2023-12-22T15:17:41;9.50;99.90
58983;DHT22;44771;49.982;8.560;2023-12-22T15:22:43;9.50;99.90
58983;DHT22;44771;49.982;8.560;2023-12-22T15:27:45;9.50;99.90
58983;DHT22;44771;49.982;8.560;2023-12-22T15:32:49;9.60;99.90
58983;DHT22;44771;49.982;8.560;2023-12-22T15:37:51;9.60;99.90
58983;DHT22;44771;49.982;8.560;2023-12-22T15:42:53;9.60;99.90
58983;DHT22;44771;49.982;8.560;2023-12-22T15:47:56;9.60;99.90
58983;DHT22;44771;49.982;8.560;2023-12-22T15:52:58;9.60;99.90
58983;DHT22;44771;49.982;8.560;2023-12-22T15:58:00;9.70;99.90
58983;DHT22;44771;49.982;8.560;2023-12-22T16:03:04;9.50;99.90
58983;DHT22;44771;49.982;8.560;2023-12-22T16:08:06;9.20;99.90
58983;DHT22;44771;49.982;8.560;2023-12-22T16:13:10;9.10;99.90
58983;DHT22;44771;49.982;8.560;2023-12-22T16:18:13;9.20;99.90
58983;DHT22;44771;49.982;8.560;2023-12-22T16:23:15;9.20;99.90
58983;DHT22;44771;49.982;8.560;2023-12-22T16:28:17;9.20;99.90
58983;DHT22;44771;49.982;8.560;2023-12-22T16:33:21;9.40;99.90
58983;DHT22;44771;49.982;8.560;2023-12-22T16:38:23;9.30;99.90
58983;DHT22;44771;49.982;8.560;2023-12-22T16:43:24;9.30;99.90
58983;DHT22;44771;49.982;8.560;2023-12-22T16:48:28;9.20;99.90
58983;DHT22;44771;49.982;8.560;2023-12-22T16:53:30;9.00;99.90
58983;DHT22;44771;49.982;8.560;2023-12-22T16:58:32;8.90;99.90
58983;DHT22;44771;49.982;8.560;2023-12-22T17:03:36;8.90;99.90
58983;DHT22;44771;49.982;8.560;2023-12-22T17:08:39;8.70;99.90
58983;DHT22;44771;49.982;8.560;2023-12-22T17:13:41;8.60;99.90
58983;DHT22;44771;49.982;8.560;2023-12-22T17:18:44;8.70;99.90
58983;DHT22;44771;49.982;8.560;2023-12-22T17:23:46;8.70;99.90
58983;DHT22;44771;49.982;8.560;2023-12-22T17:28:49;8.70;99.90
58983;DHT22;44771;49.982;8.560;2023-12-22T17:33:52;8.60;99.90
58983;DHT22;44771;49.982;8.560;2023-12-22T17:38:54;8.50;99.90
58983;DHT22;44771;49.982;8.560;2023-12-22T17:43:56;8.50;99.90
58983;DHT22;44771;49.982;8.560;2023-12-22T17:48:59;8.60;99.90
58983;DHT22;44771;49.982;8.560;2023-12-22T17:54:01;8.70;99.90
58983;DHT22;44771;49.982;8.560;2023-12-22T17:59:03;8.50;99.90
58983;DHT22;44771;49.982;8.560;2023-12-22T18:04:06;8.50;99.90
58983;DHT22;44771;49.982;8.560;2023-12-22T18:09:08;8.70;99.90
58983;DHT22;44771;49.982;8.560;2023-12-22T18:14:10;8.60;99.90
58983;DHT22;44771;49.982;8.560;2023-12-22T18:19:15;8.60;99.90
58983;DHT22;44771;49.982;8.560;2023-12-22T18:24:17;8.50;99.90
58983;DHT22;44771;49.982;8.560;2023-12-22T18:29:19;8.60;99.90
58983;DHT22;44771;49.982;8.560;2023-12-22T18:34:22;8.50;99.90
58983;DHT22;44771;49.982;8.560;2023-12-22T18:39:24;8.60;99.90
58983;DHT22;44771;49.982;8.560;2023-12-22T18:44:26;8.70;99.90
58983;DHT22;44771;49.982;8.560;2023-12-22T18:49:29;8.80;99.90
58983;DHT22;44771;49.982;8.560;2023-12-22T18:54:31;8.90;99.90
58983;DHT22;44771;49.982;8.560;2023-12-22T18:59:33;8.90;99.90
58983;DHT22;44771;49.982;8.560;2023-12-22T19:04:36;8.80;99.90
58983;DHT22;44771;49.982;8.560;2023-12-22T19:09:38;8.70;99.90
58983;DHT22;44771;49.982;8.560;2023-12-22T19:14:40;8.60;99.90
58983;DHT22;44771;49.982;8.560;2023-12-22T19:19:43;8.70;99.90
58983;DHT22;44771;49.982;8.560;2023-12-22T19:24:45;8.70;99.90
58983;DHT22;44771;49.982;8.560;2023-12-22T19:29:47;8.80;99.90
58983;DHT22;44771;49.982;8.560;2023-12-22T19:34:51;8.80;99.90
58983;DHT22;44771;49.982;8.560;2023-12-22T19:39:53;8.90;99.90
58983;DHT22;44771;49.982;8.560;2023-12-22T19:44:55;8.90;99.90
58983;DHT22;44771;49.982;8.560;2023-12-22T19:50:00;8.80;99.90
58983;DHT22;44771;49.982;8.560;2023-12-22T19:55:03;8.70;99.90
58983;DHT22;44771;49.982;8.560;2023-12-22T20:00:07;8.80;99.90
58983;DHT22;44771;49.982;8.560;2023-12-22T20:05:10;9.00;99.90
58983;DHT22;44771;49.982;8.560;2023-12-22T20:10:12;9.10;99.90
58983;DHT22;44771;49.982;8.560;2023-12-22T20:15:14;9.10;99.90
58983;DHT22;44771;49.982;8.560;2023-12-22T20:20:17;9.10;99.90
58983;DHT22;44771;49.982;8.560;2023-12-22T20:25:20;9.20;99.90
58983;DHT22;44771;49.982;8.560;2023-12-22T20:30:22;9.10;99.90
58983;DHT22;44771;49.982;8.560;2023-12-22T20:35:25;9.20;99.90
58983;DHT22;44771;49.982;8.560;2023-12-22T20:40:27;9.30;99.90
58983;DHT22;44771;49.982;8.560;2023-12-22T20:45:29;9.20;99.90
58983;DHT22;44771;49.982;8.560;2023-12-22T20:50:32;9.20;99.90
58983;DHT22;44771;49.982;8.560;2023-12-22T20:55:35;9.20;99.90
58983;DHT22;44771;49.982;8.560;2023-12-22T21:00:37;9.20;99.90
58983;DHT22;44771;49.982;8.560;2023-12-22T21:05:40;9.20;99.90
58983;DHT22;44771;49.982;8.560;2023-12-22T21:10:42;9.20;99.90
58983;DHT22;44771;49.982;8.560;2023-12-22T21:15:44;9.20;99.90
58983;DHT22;44771;49.982;8.560;2023-12-22T21:20:47;9.30;99.90
58983;DHT22;44771;49.982;8.560;2023-12-22T21:25:49;9.30;99.90
58983;DHT22;44771;49.982;8.560;2023-12-22T21:30:51;9.30;99.90
58983;DHT22;44771;49.982;8.560;2023-12-22T21:35:54;9.20;99.90
58983;DHT22;44771;49.982;8.560;2023-12-22T21:40:56;9.20;99.90
58983;DHT22;44771;49.982;8.560;2023-12-22T21:45:57;9.20;99.90
58983;DHT22;44771;49.982;8.560;2023-12-22T21:51:02;9.20;99.90
58983;DHT22;44771;49.982;8.560;2023-12-22T21:56:05;9.30;99.90
58983;DHT22;44771;49.982;8.560;2023-12-22T22:01:07;9.30;99.90
58983;DHT22;44771;49.982;8.560;2023-12-22T22:06:11;9.30;99.90
58983;DHT22;44771;49.982;8.560;2023-12-22T22:11:13;9.20;99.90
58983;DHT22;44771;49.982;8.560;2023-12-22T22:16:17;9.20;99.90
58983;DHT22;44771;49.982;8.560;2023-12-22T22:21:20;9.20;99.90
58983;DHT22;44771;49.982;8.560;2023-12-22T22:26:22;9.30;99.90
58983;DHT22;44771;49.982;8.560;2023-12-22T22:31:27;9.20;99.90
58983;DHT22;44771;49.982;8.560;2023-12-22T22:36:30;9.20;99.90
58983;DHT22;44771;49.982;8.560;2023-12-22T22:41:31;9.10;99.90
58983;DHT22;44771;49.982;8.560;2023-12-22T22:46:33;9.20;99.90
58983;DHT22;44771;49.982;8.560;2023-12-22T22:51:36;9.20;99.90
58983;DHT22;44771;49.982;8.560;2023-12-22T22:56:40;9.20;99.90
58983;DHT22;44771;49.982;8.560;2023-12-22T23:01:45;9.20;99.90
58983;DHT22;44771;49.982;8.560;2023-12-22T23:06:48;9.30;99.90
58983;DHT22;44771;49.982;8.560;2023-12-22T23:11:50;9.30;99.90
58983;DHT22;44771;49.982;8.560;2023-12-22T23:16:55;9.30;99.90
58983;DHT22;44771;49.982;8.560;2023-12-22T23:21:58;9.40;99.90
58983;DHT22;44771;49.982;8.560;2023-12-22T23:27:00;9.50;99.90
58983;DHT22;44771;49.982;8.560;2023-12-22T23:32:02;9.50;99.90
58983;DHT22;44771;49.982;8.560;2023-12-22T23:37:06;9.50;99.90
58983;DHT22;44771;49.982;8.560;2023-12-22T23:42:08;9.60;99.90
58983;DHT22;44771;49.982;8.560;2023-12-22T23:47:09;9.50;99.90
58983;DHT22;44771;49.982;8.560;2023-12-22T23:52:13;9.50;99.90
58983;DHT22;44771;49.982;8.560;2023-12-22T23:57:15;9.50;99.90
